Time;durP1;ratioP1;P1;durP2;ratioP2;P2;SDS_P1;SDS_P2;PMS_P1;PMS_P2;Temp;Humidity;BMP_temperature;BMP_pressure;BME280_temperature;BME280_humidity;BME280_pressure;Samples;Min_cycle;Max_cycle;Signal;HPM_P1;HPM_P2
2023/10/17 00:02:10;;;;;;;5.55;2.72;;;;;;;9.60;42.20;95642.75;5047240;28;20041;-80
2023/10/17 00:04:38;;;;;;;8.65;3.30;;;;;;;9.91;42.35;95681.63;5039349;28;20423;-80
2023/10/17 00:07:03;;;;;;;6.07;3.72;;;;;;;10.16;42.30;95722.53;5027243;28;20116;-81
2023/10/17 00:09:36;;;;;;;14.98;3.17;;;;;;;10.16;42.43;95717.22;5047837;28;20037;-82
2023/10/17 00:14:45;;;;;;;7.30;3.08;;;;;;;10.16;42.72;95706.63;5046843;28;20164;-81
2023/10/17 00:17:14;;;;;;;8.48;2.90;;;;;;;10.10;42.84;95705.81;5013313;28;20043;-80
2023/10/17 00:19:41;;;;;;;7.78;3.45;;;;;;;9.76;42.82;95662.97;5034020;28;20042;-80
2023/10/17 00:22:09;;;;;;;4.45;2.92;;;;;;;9.81;42.71;95670.94;5049443;28;20041;-81
2023/10/17 00:24:35;;;;;;;6.07;3.03;;;;;;;10.10;43.31;95700.50;5018796;28;20056;-80
2023/10/17 00:27:02;;;;;;;8.85;3.70;;;;;;;9.80;43.64;95652.66;5017909;28;20030;-79
2023/10/17 00:29:28;;;;;;;5.18;2.90;;;;;;;9.69;43.34;95649.13;5020692;28;20107;-79
2023/10/17 00:31:53;;;;;;;5.57;2.83;;;;;;;10.07;43.44;95695.72;5006875;28;20026;-79
2023/10/17 00:34:24;;;;;;;15.05;3.63;;;;;;;9.97;43.14;95683.22;5032464;28;20054;-80
2023/10/17 00:39:37;;;;;;;5.60;2.75;;;;;;;9.67;43.64;95635.38;5026549;28;20088;-79
2023/10/17 00:44:41;;;;;;;4.25;2.70;;;;;;;9.92;43.63;95672.59;5034210;28;20045;-79
2023/10/17 00:47:11;;;;;;;9.55;3.35;;;;;;;9.88;43.86;95662.78;5014500;28;20123;-79
2023/10/17 00:49:41;;;;;;;10.65;3.55;;;;;;;9.92;44.19;95685.81;5021813;28;20033;-79
2023/10/17 00:52:24;;;;;;;9.05;3.67;;;;;;;9.97;44.48;95682.44;5032051;28;20040;-80
2023/10/17 00:54:51;;;;;;;7.18;3.38;;;;;;;9.53;44.23;95629.75;4999906;28;20447;-79
2023/10/17 00:57:17;;;;;;;8.55;3.10;;;;;;;9.04;44.52;95570.91;5012527;28;20053;-80
2023/10/17 00:59:50;;;;;;;7.03;3.38;;;;;;;9.56;44.17;95660.19;5026172;28;20076;-79
2023/10/17 01:02:19;;;;;;;20.55;6.22;;;;;;;9.65;44.14;95666.59;5020590;28;20112;-80
2023/10/17 01:04:45;;;;;;;6.78;3.25;;;;;;;9.65;44.30;95667.41;5021200;28;20051;-79
2023/10/17 01:07:12;;;;;;;6.88;4.18;;;;;;;9.49;44.49;95641.88;5035578;28;20037;-79
2023/10/17 01:09:38;;;;;;;8.45;3.38;;;;;;;9.25;45.09;95628.22;5010472;28;20038;-80
2023/10/17 01:12:10;;;;;;;7.72;3.50;;;;;;;9.49;44.59;95664.91;5016448;28;20103;-80
2023/10/17 01:14:36;;;;;;;11.48;3.42;;;;;;;9.43;44.78;95655.34;5029726;28;20041;-79
2023/10/17 01:17:07;;;;;;;5.43;3.25;;;;;;;9.15;45.09;95609.63;5020943;28;20416;-79
2023/10/17 01:19:34;;;;;;;11.77;3.60;;;;;;;9.01;45.67;95608.44;5015298;28;20092;-79
2023/10/17 01:22:00;;;;;;;8.88;3.38;;;;;;;9.22;45.99;95649.09;5006062;28;20056;-80
2023/10/17 01:24:26;;;;;;;9.40;3.45;;;;;;;9.46;46.27;95691.91;5018656;28;20105;-79
2023/10/17 01:26:55;;;;;;;12.05;4.03;;;;;;;9.33;45.95;95671.13;5027716;28;20075;-79
2023/10/17 01:29:21;;;;;;;13.52;3.83;;;;;;;9.46;46.11;95692.69;5021055;28;20051;-79
2023/10/17 01:31:55;;;;;;;8.32;3.75;;;;;;;9.45;45.98;95691.09;5030895;28;20073;-79
2023/10/17 01:34:21;;;;;;;13.77;3.67;;;;;;;9.11;46.37;95640.28;5031731;28;20029;-83
2023/10/17 01:36:49;;;;;;;10.38;3.60;;;;;;;9.20;46.53;95641.41;5032210;28;20029;-82
2023/10/17 01:39:14;;;;;;;11.65;3.22;;;;;;;9.27;46.29;95657.88;5025894;28;20042;-83
2023/10/17 01:41:48;;;;;;;11.52;3.92;;;;;;;9.21;46.38;95648.31;5011695;28;20049;-83
2023/10/17 01:44:14;;;;;;;10.38;3.17;;;;;;;8.94;46.81;95612.34;5023078;28;20457;-82
2023/10/17 01:46:43;;;;;;;14.07;3.47;;;;;;;9.35;46.79;95664.53;5028899;28;20050;-82
2023/10/17 01:49:10;;;;;;;6.43;3.53;;;;;;;9.10;46.74;95637.88;5020033;28;20117;-83
2023/10/17 01:51:37;;;;;;;8.32;3.35;;;;;;;8.99;47.06;95625.63;5016031;28;20041;-83
2023/10/17 01:54:08;;;;;;;6.68;3.58;;;;;;;9.13;47.55;95669.94;5010648;28;20115;-83
2023/10/17 01:56:39;;;;;;;10.82;3.72;;;;;;;9.25;47.34;95680.34;5030859;28;20082;-83
2023/10/17 01:59:07;;;;;;;9.88;3.22;;;;;;;9.03;47.87;95632.81;5024402;28;20069;-83
2023/10/17 02:01:36;;;;;;;14.90;4.10;;;;;;;8.90;47.91;95622.66;5013637;28;20130;-83
2023/10/17 02:04:24;;;;;;;8.52;3.45;;;;;;;8.97;47.67;95627.72;5006039;28;20041;-84
2023/10/17 02:06:47;;;;;;;7.47;3.80;;;;;;;9.22;48.05;95663.13;5023226;28;20034;-82
2023/10/17 02:11:53;;;;;;;12.45;4.20;;;;;;;9.31;48.83;95678.56;5040498;28;20132;-82
2023/10/17 02:14:18;;;;;;;10.27;3.13;;;;;;;9.14;49.13;95652.22;5027818;28;20034;-82
2023/10/17 02:16:44;;;;;;;8.93;4.18;;;;;;;9.25;48.95;95662.63;5034089;28;20056;-83
2023/10/17 02:19:10;;;;;;;8.70;3.72;;;;;;;9.22;49.13;95665.78;5018992;28;20033;-83
2023/10/17 02:21:39;;;;;;;9.90;4.05;;;;;;;9.37;48.66;95680.19;5031013;28;20033;-83
2023/10/17 02:24:07;;;;;;;12.00;4.20;;;;;;;8.82;49.37;95631.84;5030003;28;20497;-83
2023/10/17 02:26:42;;;;;;;10.68;4.25;;;;;;;8.89;48.73;95635.06;5012201;28;20073;-83
2023/10/17 02:29:11;;;;;;;11.90;4.78;;;;;;;9.00;48.28;95641.22;5014613;28;20499;-82
2023/10/17 02:31:38;;;;;;;18.73;4.50;;;;;;;8.63;49.50;95619.22;5007613;28;20049;-83
2023/10/17 02:34:04;;;;;;;8.25;3.55;;;;;;;8.61;48.90;95600.19;5002485;28;20100;-83
2023/10/17 02:36:29;;;;;;;14.73;3.50;;;;;;;8.94;48.79;95642.25;5017840;28;20045;-83
2023/10/17 02:38:55;;;;;;;15.30;4.13;;;;;;;9.06;49.25;95674.63;5010769;28;20037;-82
2023/10/17 02:41:22;;;;;;;8.40;3.58;;;;;;;8.96;49.25;95649.94;5029235;28;20037;-82
2023/10/17 02:43:53;;;;;;;12.98;3.90;;;;;;;8.78;49.15;95622.78;5010050;28;20065;-83
2023/10/17 02:46:19;;;;;;;6.03;3.40;;;;;;;9.02;49.42;95668.25;5002695;28;20468;-83
2023/10/17 02:48:47;;;;;;;10.25;3.22;;;;;;;9.08;49.94;95671.75;5013277;28;20104;-83
2023/10/17 02:53:52;;;;;;;13.73;3.38;;;;;;;8.79;49.61;95631.53;5030674;28;20040;-84
2023/10/17 02:56:21;;;;;;;11.65;3.65;;;;;;;9.07;49.94;95673.59;5012164;28;20045;-83
2023/10/17 02:58:59;;;;;;;10.63;3.78;;;;;;;8.89;49.65;95631.63;5010995;28;20050;-83
2023/10/17 03:01:26;;;;;;;6.38;3.83;;;;;;;9.05;50.17;95674.88;5006646;28;20538;-83
2023/10/17 03:03:52;;;;;;;9.90;3.50;;;;;;;8.91;50.41;95674.50;5011864;28;20045;-83
2023/10/17 03:06:18;;;;;;;13.95;3.50;;;;;;;8.89;50.33;95661.53;5021805;28;20045;-83
2023/10/17 03:09:00;;;;;;;13.57;3.63;;;;;;;8.97;50.96;95667.41;5025125;28;20048;-83
2023/10/17 03:11:35;;;;;;;9.27;3.90;;;;;;;8.97;51.11;95681.44;5007773;28;20073;-83
2023/10/17 03:14:19;;;;;;;10.90;3.60;;;;;;;8.79;51.48;95653.47;5015138;28;20029;-83
2023/10/17 03:16:54;;;;;;;8.70;3.90;;;;;;;8.99;51.08;95689.91;5015880;28;20049;-83
2023/10/17 03:19:27;;;;;;;8.00;3.70;;;;;;;8.90;51.46;95675.53;5020871;28;20499;-83
2023/10/17 03:21:58;;;;;;;10.82;4.45;;;;;;;8.72;51.59;95646.78;5008394;28;20038;-83
2023/10/17 03:24:38;;;;;;;9.75;3.78;;;;;;;8.89;52.07;95655.44;5003827;28;20045;-82
2023/10/17 03:27:05;;;;;;;8.88;3.65;;;;;;;8.85;52.48;95655.13;5024264;28;20033;-83
2023/10/17 03:29:34;;;;;;;16.25;3.88;;;;;;;8.83;52.51;95641.38;5023603;28;20029;-83
2023/10/17 03:32:04;;;;;;;8.73;4.28;;;;;;;9.14;51.81;95666.25;5016554;28;20037;-83
2023/10/17 03:34:36;;;;;;;12.25;3.75;;;;;;;8.93;52.38;95634.56;5004365;28;20026;-83
2023/10/17 03:39:52;;;;;;;9.40;4.65;;;;;;;8.93;52.38;95623.97;5027505;28;20044;-83
2023/10/17 03:45:24;;;;;;;10.18;4.53;;;;;;;8.98;52.17;95638.06;5023254;28;20052;-83
2023/10/17 03:47:53;;;;;;;8.02;4.20;;;;;;;9.18;52.01;95659.38;5022167;28;20526;-83
2023/10/17 03:53:15;;;;;;;9.40;3.83;;;;;;;9.31;51.89;95668.72;5023378;28;20512;-82
2023/10/17 03:55:54;;;;;;;8.80;4.57;;;;;;;9.36;52.24;95668.00;5026501;28;20077;-81
2023/10/17 04:00:53;;;;;;;17.38;5.05;;;;;;;9.41;52.46;95663.53;5037288;28;20034;-81
2023/10/17 04:03:26;;;;;;;10.30;4.82;;;;;;;9.35;53.00;95661.09;5020654;28;20109;-80
2023/10/17 04:08:34;;;;;;;12.88;4.57;;;;;;;9.02;52.65;95606.59;5041461;28;20045;-82
2023/10/17 04:13:49;;;;;;;13.57;4.35;;;;;;;9.50;53.26;95677.09;5034352;28;20083;-80
2023/10/17 04:16:22;;;;;;;12.43;4.40;;;;;;;9.52;53.44;95678.44;5040609;28;20045;-80
2023/10/17 04:21:45;;;;;;;20.15;4.93;;;;;;;9.45;54.15;95653.25;5032981;28;20095;-80
2023/10/17 04:24:11;;;;;;;19.92;4.68;;;;;;;9.51;53.65;95653.03;5029651;23;20746;-79
2023/10/17 04:26:42;;;;;;;17.30;4.68;;;;;;;9.26;54.07;95600.69;4980702;28;20140;-79
2023/10/17 04:29:11;;;;;;;12.88;4.40;;;;;;;9.39;53.98;95617.97;4978595;28;20676;-78
2023/10/17 04:31:43;;;;;;;9.05;5.18;;;;;;;9.64;53.94;95665.00;4954036;28;20054;-79
2023/10/17 04:34:14;;;;;;;14.57;4.50;;;;;;;9.35;53.99;95616.09;4960102;28;20500;-78
2023/10/17 04:36:41;;;;;;;11.02;4.75;;;;;;;9.67;54.30;95661.84;4979559;28;20080;-79
2023/10/17 04:39:25;;;;;;;10.13;4.25;;;;;;;9.62;53.86;95649.38;4976492;28;20524;-78
2023/10/17 04:44:34;;;;;;;15.05;4.60;;;;;;;9.53;54.17;95621.78;4984325;28;20053;-79
2023/10/17 04:49:26;;;;;;;15.70;5.05;;;;;;;9.47;54.31;95612.19;4986142;28;20473;-78
2023/10/17 04:52:19;;;;;;;13.05;4.38;;;;;;;9.56;54.31;95615.16;4980077;28;20050;-79
2023/10/17 04:54:41;;;;;;;18.60;5.05;;;;;;;9.90;54.71;95665.97;4988540;28;21871;-80
2023/10/17 04:57:16;;;;;;;8.45;4.30;;;;;;;8.72;54.16;95477.56;4981052;28;20272;-80
2023/10/17 06:19:15;;;;;;;12.48;4.97;;;;;;;10.58;54.92;95710.03;4971257;28;20062;-77
2023/10/17 06:34:46;;;;;;;9.93;3.50;;;;;;;10.59;54.69;95647.19;4987395;28;20061;-77
2023/10/17 06:37:28;;;;;;;8.27;3.40;;;;;;;11.03;54.10;95695.28;4991953;28;20076;-78
2023/10/17 06:39:58;;;;;;;16.08;3.15;;;;;;;11.23;53.50;95704.06;4979900;28;20057;-77
2023/10/17 06:42:31;;;;;;;10.50;3.60;;;;;;;11.06;53.68;95690.22;4988802;28;20045;-76
2023/10/17 06:45:09;;;;;;;10.05;3.20;;;;;;;11.26;53.68;95694.78;4967940;28;20145;-76
2023/10/17 06:47:50;;;;;;;13.93;3.58;;;;;;;10.70;53.76;95620.41;4983464;28;20072;-77
2023/10/17 06:50:17;;;;;;;10.40;3.78;;;;;;;11.40;53.14;95709.13;4972237;28;20527;-78
2023/10/17 06:55:21;;;;;;;14.63;3.67;;;;;;;11.31;52.52;95670.88;4992389;28;20057;-76
2023/10/17 06:57:50;;;;;;;7.55;2.90;;;;;;;11.32;52.83;95661.84;4985333;28;20107;-76
2023/10/17 07:00:42;;;;;;;5.88;2.60;;;;;;;11.35;52.54;95666.66;4965175;28;20046;-76
2023/10/17 07:03:08;;;;;;;7.53;3.00;;;;;;;11.50;52.42;95697.72;4966800;28;20050;-76
2023/10/17 07:05:36;;;;;;;8.48;3.40;;;;;;;11.65;51.82;95691.59;4957814;28;20046;-76
2023/10/17 07:08:02;;;;;;;13.98;3.30;;;;;;;11.54;51.67;95661.56;4953527;28;20477;-76
2023/10/17 07:13:39;;;;;;;6.68;2.88;;;;;;;11.95;51.69;95684.41;4943117;28;20225;-77
2023/10/17 07:16:11;;;;;;;9.52;3.28;;;;;;;11.75;51.31;95657.09;4945342;28;20042;-77
2023/10/17 07:18:47;;;;;;;12.60;4.00;;;;;;;11.85;51.38;95665.81;4965471;28;20069;-75
2023/10/17 07:23:48;;;;;;;11.55;2.95;;;;;;;12.00;51.20;95654.34;4993313;28;20107;-76
2023/10/17 07:28:56;;;;;;;8.32;3.60;;;;;;;12.34;50.38;95673.91;4991122;28;20052;-76
2023/10/17 07:31:22;;;;;;;12.48;3.28;;;;;;;12.34;50.29;95659.81;4988390;28;20531;-76
2023/10/17 07:42:40;;;;;;;8.85;3.00;;;;;;;12.68;48.93;95657.25;4967144;28;20332;-76
2023/10/17 07:45:15;;;;;;;10.80;2.88;;;;;;;12.70;48.22;95649.78;4974958;28;20104;-75
2023/10/17 07:47:51;;;;;;;9.02;3.35;;;;;;;12.76;48.16;95659.34;4956758;28;21229;-76
2023/10/17 07:50:17;;;;;;;8.68;2.78;;;;;;;12.76;48.51;95660.13;4973808;28;20041;-76
2023/10/17 07:52:59;;;;;;;11.15;3.00;;;;;;;12.92;48.17;95650.19;4957016;28;20046;-77
2023/10/17 07:57:53;;;;;;;13.15;2.80;;;;;;;12.69;47.66;95600.31;4959478;28;20050;-76
2023/10/17 08:00:26;;;;;;;7.55;2.20;;;;;;;13.03;47.85;95650.94;4956221;28;20100;-76
2023/10/17 08:08:42;;;;;;;13.75;3.88;;;;;;;12.86;47.33;95613.25;4984959;28;20189;-76
2023/10/17 08:11:26;;;;;;;9.35;2.85;;;;;;;13.29;47.28;95652.34;4977996;28;20046;-76
2023/10/17 08:14:01;;;;;;;13.57;2.55;;;;;;;13.30;46.38;95635.28;4978155;28;20038;-77
2023/10/17 08:16:29;;;;;;;13.00;2.85;;;;;;;13.43;46.21;95639.19;4963599;28;20069;-77
2023/10/17 08:18:58;;;;;;;14.20;2.70;;;;;;;13.47;46.45;95653.53;4974801;28;20068;-78
2023/10/17 08:23:57;;;;;;;8.02;2.10;;;;;;;13.44;46.00;95628.25;4976855;28;20097;-75
2023/10/17 08:26:28;;;;;;;7.30;2.10;;;;;;;13.46;46.21;95647.41;4958060;28;20071;-78
2023/10/17 08:28:56;;;;;;;11.70;2.17;;;;;;;13.37;45.81;95616.31;4971047;28;20902;-77
2023/10/17 08:31:35;;;;;;;7.63;2.05;;;;;;;13.56;45.59;95627.09;4957426;28;20216;-79
2023/10/17 08:36:43;;;;;;;7.07;2.22;;;;;;;13.39;45.74;95641.63;4985238;28;20116;-77
2023/10/17 08:41:57;;;;;;;6.03;2.10;;;;;;;13.55;44.99;95631.63;4993453;28;20037;-78
2023/10/17 08:44:31;;;;;;;11.40;2.90;;;;;;;13.62;45.09;95637.41;4992140;28;20106;-77
2023/10/17 08:46:58;;;;;;;3.80;2.08;;;;;;;13.64;44.28;95613.16;4968515;28;21106;-78
2023/10/17 08:49:27;;;;;;;9.23;1.95;;;;;;;13.85;44.09;95642.00;4996447;28;20034;-77
2023/10/17 08:51:58;;;;;;;8.15;2.08;;;;;;;13.82;44.41;95650.53;4967355;28;20116;-78
2023/10/17 08:54:28;;;;;;;10.50;2.10;;;;;;;13.44;44.21;95582.16;4967651;28;20114;-78
2023/10/17 08:56:53;;;;;;;8.27;2.35;;;;;;;13.85;44.03;95639.31;4983873;28;20624;-78
2023/10/17 08:59:45;;;;;;;6.80;2.58;;;;;;;13.19;44.43;95561.09;4978731;28;20045;-78
2023/10/17 09:04:51;;;;;;;8.60;2.22;;;;;;;13.71;44.64;95650.94;4975195;28;20073;-78
2023/10/17 09:07:31;;;;;;;4.45;1.98;;;;;;;13.64;44.39;95634.47;4986412;28;20451;-78
2023/10/17 09:10:07;;;;;;;5.60;2.35;;;;;;;13.51;44.49;95611.94;4967460;28;20038;-78
2023/10/17 09:15:27;;;;;;;8.60;2.60;;;;;;;13.41;45.08;95596.06;4994759;28;20140;-78
2023/10/17 09:18:09;;;;;;;13.60;2.20;;;;;;;13.63;44.57;95601.69;4968360;28;20042;-78
2023/10/17 09:20:35;;;;;;;;;;;;;;;13.96;44.50;95621.31;4992847;28;20516;-78
2023/10/17 09:23:00;;;;;;;9.82;2.83;;;;;;;13.40;44.67;95552.63;4993319;28;20544;-78
2023/10/17 09:25:26;;;;;;;8.05;2.85;;;;;;;13.59;44.52;95574.00;4993100;28;20065;-79
2023/10/17 09:27:57;;;;;;;10.98;2.83;;;;;;;13.74;44.43;95605.84;4977618;28;20108;-78
2023/10/17 09:30:26;;;;;;;9.07;2.90;;;;;;;13.40;44.10;95533.19;4989354;28;20062;-77
2023/10/17 09:32:52;;;;;;;8.70;2.70;;;;;;;13.73;44.28;95590.16;4973195;28;20073;-78
2023/10/17 09:35:18;;;;;;;7.78;2.13;;;;;;;13.61;44.30;95547.09;4990721;28;20298;-78
2023/10/17 09:37:51;;;;;;;7.40;2.22;;;;;;;14.03;43.95;95605.00;4965761;28;20105;-78
2023/10/17 09:40:31;;;;;;;10.68;2.78;;;;;;;14.07;44.17;95606.03;4981013;28;20057;-78
2023/10/17 09:42:58;;;;;;;5.88;2.58;;;;;;;13.79;44.18;95555.16;4968103;28;20157;-78
2023/10/17 09:45:30;;;;;;;4.32;2.40;;;;;;;13.87;43.43;95559.88;4969918;28;20872;-77
2023/10/17 09:48:01;;;;;;;15.88;2.20;;;;;;;14.15;43.79;95587.50;4990910;28;20057;-79
2023/10/17 09:50:29;;;;;;;14.02;2.47;;;;;;;13.79;43.63;95531.16;4991247;28;20049;-78
2023/10/17 09:52:59;;;;;;;6.20;2.33;;;;;;;13.95;43.27;95553.09;4971083;28;20046;-76
2023/10/17 09:55:25;;;;;;;5.03;2.47;;;;;;;14.15;43.66;95582.19;4995296;28;20080;-76
2023/10/17 09:57:56;;;;;;;6.60;2.55;;;;;;;14.00;43.37;95545.03;4992280;28;20453;-75
2023/10/17 10:00:30;;;;;;;4.13;2.20;;;;;;;13.76;43.31;95520.25;4977956;28;20053;-75
2023/10/17 10:02:57;;;;;;;7.15;2.20;;;;;;;14.12;43.27;95582.75;4970117;28;20149;-76
2023/10/17 10:05:25;;;;;;;19.45;2.47;;;;;;;13.70;43.48;95500.88;4968067;28;20034;-76
2023/10/17 10:07:52;;;;;;;10.18;2.15;;;;;;;13.97;43.15;95539.47;4973371;28;20050;-74
2023/10/17 10:10:44;;;;;;;15.93;2.38;;;;;;;14.16;43.12;95580.31;4973870;28;20053;-76
2023/10/17 10:13:14;;;;;;;5.43;2.70;;;;;;;14.16;42.92;95567.78;4976952;28;20073;-77
2023/10/17 10:15:51;;;;;;;10.80;2.72;;;;;;;14.21;43.24;95559.69;4983668;28;20038;-78
2023/10/17 10:18:37;;;;;;;9.85;2.55;;;;;;;14.18;43.84;95572.81;4997258;28;20155;-76
2023/10/17 10:21:03;;;;;;;7.65;2.20;;;;;;;14.14;43.44;95551.25;4964406;28;20042;-76
2023/10/17 10:23:36;;;;;;;9.30;1.90;;;;;;;14.21;43.55;95567.69;4990666;28;20056;-78
2023/10/17 10:26:10;;;;;;;14.98;2.95;;;;;;;14.19;43.49;95563.72;4980968;28;20046;-76
2023/10/17 10:28:37;;;;;;;4.78;2.40;;;;;;;14.27;43.33;95560.41;4968910;28;20057;-76
2023/10/17 10:31:22;;;;;;;10.93;2.70;;;;;;;14.16;43.63;95557.09;4951334;28;20084;-77
2023/10/17 10:33:48;;;;;;;7.10;2.38;;;;;;;13.74;43.99;95523.22;4956038;28;20484;-78
2023/10/17 10:36:19;;;;;;;5.38;2.17;;;;;;;13.88;43.71;95566.00;4948740;28;20736;-79
2023/10/17 10:38:45;;;;;;;5.07;1.88;;;;;;;13.85;43.28;95511.34;4971587;28;20038;-79
2023/10/17 10:41:18;;;;;;;5.38;1.90;;;;;;;13.86;43.36;95520.94;4981160;28;20452;-79
2023/10/17 10:43:45;;;;;;;6.13;2.13;;;;;;;14.12;43.09;95555.28;4986510;28;20053;-79
2023/10/17 10:46:14;;;;;;;13.93;2.17;;;;;;;13.97;42.98;95528.81;4966559;28;20103;-78
2023/10/17 10:48:47;;;;;;;6.72;2.08;;;;;;;13.88;43.44;95529.44;4983804;28;20077;-78
2023/10/17 10:51:16;;;;;;;7.68;2.53;;;;;;;14.02;43.10;95540.22;4985727;28;20046;-77
2023/10/17 10:53:44;;;;;;;9.05;2.10;;;;;;;13.98;43.19;95541.06;4999988;28;20038;-77
2023/10/17 10:56:11;;;;;;;8.02;2.80;;;;;;;14.02;43.04;95534.88;4987975;28;20049;-76
2023/10/17 10:58:47;;;;;;;4.90;1.83;;;;;;;14.19;42.87;95550.38;4983057;28;20435;-77
2023/10/17 11:01:14;;;;;;;6.05;2.25;;;;;;;14.05;42.80;95534.28;4984103;28;20080;-77
2023/10/17 11:03:41;;;;;;;7.38;2.22;;;;;;;14.18;43.04;95552.28;4974144;28;20062;-77
2023/10/17 11:06:09;;;;;;;11.57;2.72;;;;;;;14.37;42.55;95544.28;4985885;28;20129;-76
2023/10/17 11:08:41;;;;;;;11.65;2.63;;;;;;;14.27;42.58;95526.53;4989273;28;20141;-77
2023/10/17 11:11:09;;;;;;;7.60;2.75;;;;;;;14.33;42.79;95535.28;4980444;28;20061;-78
2023/10/17 11:13:37;;;;;;;6.07;2.17;;;;;;;14.32;42.90;95530.22;4988180;28;20029;-76
2023/10/17 11:16:06;;;;;;;6.70;2.80;;;;;;;14.37;42.76;95528.28;4981600;28;20046;-76
2023/10/17 11:18:43;;;;;;;12.05;3.20;;;;;;;14.43;42.80;95519.13;4962640;28;20649;-77
2023/10/17 11:21:09;;;;;;;6.90;2.78;;;;;;;14.39;42.77;95518.16;4964082;28;20092;-76
2023/10/17 11:23:39;;;;;;;6.13;2.50;;;;;;;14.44;42.99;95507.38;4957749;28;20046;-77
2023/10/17 11:26:12;;;;;;;13.43;2.90;;;;;;;13.83;42.97;95460.19;4959641;28;20046;-78
2023/10/17 11:28:51;;;;;;;8.68;2.38;;;;;;;14.05;43.80;95494.28;4972410;28;20061;-77
2023/10/17 11:31:24;;;;;;;11.73;4.78;;;;;;;13.89;42.63;95434.25;4977415;28;21734;-76
2023/10/17 11:34:02;;;;;;;11.20;2.65;;;;;;;14.25;42.71;95475.34;4970359;28;20101;-77
2023/10/17 11:36:37;;;;;;;8.27;2.78;;;;;;;13.84;42.88;95397.00;4967534;28;20060;-77
2023/10/17 11:39:08;;;;;;;8.63;2.90;;;;;;;14.38;42.78;95481.88;4988923;28;20045;-76
2023/10/17 11:41:52;;;;;;;6.75;2.35;;;;;;;14.48;42.58;95475.59;4981512;28;20076;-77
2023/10/17 11:44:23;;;;;;;7.90;2.45;;;;;;;14.42;42.45;95474.84;4978188;28;20073;-76
2023/10/17 11:47:02;;;;;;;11.40;2.50;;;;;;;14.48;42.34;95459.56;4984019;28;20057;-77
2023/10/17 11:49:31;;;;;;;10.07;2.58;;;;;;;14.26;42.63;95438.81;4970347;28;20042;-76
2023/10/17 11:52:01;;;;;;;14.43;2.83;;;;;;;14.04;43.40;95442.03;4987827;28;20049;-77
2023/10/17 11:54:30;;;;;;;15.35;2.83;;;;;;;14.29;43.05;95463.00;4986107;28;20061;-77
2023/10/17 11:57:09;;;;;;;15.10;3.63;;;;;;;13.87;43.67;95423.09;4986838;28;20053;-78
2023/10/17 11:59:34;;;;;;;4.90;2.50;;;;;;;13.85;44.09;95444.72;4991718;28;20073;-76
2023/10/17 12:02:03;;;;;;;6.03;3.03;;;;;;;13.45;43.88;95381.28;4994602;28;20042;-76
2023/10/17 12:04:28;;;;;;;5.88;2.65;;;;;;;13.89;43.97;95439.56;5006090;28;20038;-76
2023/10/17 12:06:53;;;;;;;7.78;2.63;;;;;;;13.85;44.08;95444.72;4984399;28;20042;-77
2023/10/17 12:11:52;;;;;;;11.02;2.75;;;;;;;14.08;44.09;95463.59;4976275;28;20044;-79
2023/10/17 12:14:21;;;;;;;9.13;2.45;;;;;;;14.17;44.15;95461.88;4969574;28;20050;-79
2023/10/17 12:16:54;;;;;;;6.15;3.20;;;;;;;14.13;44.50;95460.84;4967541;28;20049;-80
2023/10/17 12:19:20;;;;;;;9.27;3.33;;;;;;;13.89;44.89;95421.72;4964405;28;20078;-80
2023/10/17 12:21:49;;;;;;;10.82;3.13;;;;;;;14.10;44.83;95458.78;4988330;28;20045;-77
2023/10/17 12:24:28;;;;;;;8.20;2.65;;;;;;;14.03;45.05;95448.47;4968239;28;20054;-79
2023/10/17 12:26:58;;;;;;;3.38;2.20;;;;;;;13.52;44.52;95373.72;4993076;28;20029;-78
2023/10/17 12:29:26;;;;;;;11.88;3.40;;;;;;;14.17;44.16;95452.00;4986357;28;20050;-80
2023/10/17 12:32:01;;;;;;;9.55;2.53;;;;;;;13.87;44.42;95399.91;4960181;28;20037;-78
2023/10/17 12:34:27;;;;;;;3.75;2.53;;;;;;;13.97;44.18;95406.16;4990147;28;20053;-77
2023/10/17 12:36:56;;;;;;;12.00;2.90;;;;;;;13.67;43.86;95367.38;4990299;28;20125;-78
2023/10/17 12:39:23;;;;;;;6.82;2.85;;;;;;;13.90;44.45;95395.84;4993226;28;20054;-77
2023/10/17 12:41:50;;;;;;;6.20;2.72;;;;;;;14.21;44.27;95444.19;4987716;28;20078;-77
2023/10/17 12:44:17;;;;;;;13.00;2.45;;;;;;;14.03;44.55;95445.00;4987880;28;20054;-78
2023/10/17 12:46:43;;;;;;;9.73;2.83;;;;;;;13.86;44.64;95411.63;4986086;28;20065;-78
2023/10/17 12:49:10;;;;;;;14.27;3.13;;;;;;;13.89;44.61;95416.38;4988050;28;20563;-77
2023/10/17 12:51:39;;;;;;;9.32;3.20;;;;;;;14.06;44.96;95452.41;4995428;28;20113;-78
2023/10/17 12:54:07;;;;;;;5.95;3.15;;;;;;;13.99;45.29;95438.66;4977906;28;21062;-78
2023/10/17 12:56:36;;;;;;;10.95;3.08;;;;;;;13.85;47.71;95419.91;4976102;28;20053;-77
2023/10/17 12:59:03;;;;;;;7.55;2.80;;;;;;;13.85;49.82;95436.72;4996754;28;20548;-77
2023/10/17 13:01:29;;;;;;;6.13;3.08;;;;;;;13.99;48.62;95454.66;4977829;28;20069;-76
2023/10/17 13:03:57;;;;;;;9.43;2.95;;;;;;;13.53;48.80;95420.59;4980998;28;20149;-77
2023/10/17 13:06:25;;;;;;;4.13;2.28;;;;;;;13.79;49.19;95451.19;4978766;28;20077;-77
2023/10/17 13:08:56;;;;;;;6.15;2.53;;;;;;;13.66;49.20;95425.22;4987610;28;20125;-77
2023/10/17 13:11:25;;;;;;;6.15;2.50;;;;;;;13.54;49.71;95422.19;4978905;28;20718;-77
2023/10/17 13:13:51;;;;;;;6.55;3.10;;;;;;;13.53;49.94;95431.25;4956602;28;20801;-77
2023/10/17 13:16:16;;;;;;;4.50;2.88;;;;;;;13.56;51.99;95425.38;4975707;28;20042;-77
2023/10/17 13:18:42;;;;;;;8.25;2.83;;;;;;;13.43;52.88;95418.84;4982879;28;20038;-77
2023/10/17 13:21:13;;;;;;;5.47;3.30;;;;;;;13.19;54.30;95396.78;4973148;28;20053;-77
2023/10/17 13:23:44;;;;;;;8.20;2.95;;;;;;;13.28;53.17;95426.22;4983300;28;20038;-78
2023/10/17 13:26:11;;;;;;;7.05;3.40;;;;;;;13.32;52.55;95425.38;4983323;28;20045;-77
2023/10/17 13:28:38;;;;;;;5.47;2.67;;;;;;;13.19;53.12;95417.28;4978995;28;20034;-77
2023/10/17 13:31:16;;;;;;;7.78;2.83;;;;;;;13.30;53.62;95429.41;4986560;28;20240;-78
2023/10/17 13:33:43;;;;;;;9.00;4.22;;;;;;;13.16;52.95;95437.28;4978118;28;20038;-78
2023/10/17 13:36:11;;;;;;;6.20;3.15;;;;;;;13.27;54.50;95451.28;4984695;28;20103;-78
2023/10/17 13:38:40;;;;;;;5.78;2.75;;;;;;;13.13;54.66;95443.16;4989817;28;20401;-78
2023/10/17 13:41:09;;;;;;;9.68;3.15;;;;;;;12.60;54.75;95357.16;4963292;28;20168;-77
2023/10/17 13:43:36;;;;;;;7.22;3.50;;;;;;;12.99;53.17;95448.34;4988466;28;20230;-77
2023/10/17 13:46:07;;;;;;;9.35;3.67;;;;;;;13.06;55.00;95453.31;4975822;28;20073;-77
2023/10/17 13:48:33;;;;;;;9.00;3.35;;;;;;;12.67;54.07;95416.16;4969297;28;20046;-77
2023/10/17 13:51:06;;;;;;;7.63;2.95;;;;;;;12.97;54.18;95453.16;4966331;28;20045;-77
2023/10/17 13:53:36;;;;;;;8.48;4.18;;;;;;;12.88;54.95;95430.09;4960587;28;21214;-78
2023/10/17 13:56:11;;;;;;;6.82;3.22;;;;;;;12.48;53.83;95383.38;4993804;28;20046;-78
2023/10/17 13:58:38;;;;;;;14.43;3.45;;;;;;;12.82;54.46;95432.00;4980363;28;20101;-78
2023/10/17 14:01:27;;;;;;;4.78;2.80;;;;;;;12.70;54.91;95416.41;4966511;28;20046;-78
2023/10/17 14:03:50;;;;;;;15.82;3.88;;;;;;;12.91;54.99;95445.50;4976989;28;20400;-78
2023/10/17 14:06:16;;;;;;;10.02;3.13;;;;;;;12.53;55.25;95413.38;4979756;28;20748;-77
2023/10/17 14:08:42;;;;;;;11.65;4.13;;;;;;;12.29;55.64;95354.81;4970945;28;20034;-77
2023/10/17 14:11:08;;;;;;;12.55;3.10;;;;;;;12.87;56.58;95445.28;4990849;28;20045;-77
2023/10/17 14:13:33;;;;;;;8.50;2.85;;;;;;;12.58;56.13;95409.91;4962686;28;20338;-77
2023/10/17 14:16:00;;;;;;;10.00;3.63;;;;;;;12.50;57.27;95391.88;4993164;28;20115;-78
2023/10/17 14:18:39;;;;;;;7.68;2.72;;;;;;;12.55;56.37;95408.56;4992136;28;20042;-76
2023/10/17 14:21:16;;;;;;;9.68;3.17;;;;;;;12.34;57.57;95399.19;4980052;28;20068;-77
2023/10/17 14:26:48;;;;;;;12.38;3.28;;;;;;;12.24;57.62;95423.19;4937499;28;20039;-76
2023/10/17 14:29:16;;;;;;;7.40;3.25;;;;;;;12.06;58.71;95383.97;4925595;28;20051;-79
2023/10/17 14:31:43;;;;;;;12.73;3.63;;;;;;;12.31;59.76;95437.75;4944692;28;20114;-78
2023/10/17 14:34:09;;;;;;;16.25;4.47;;;;;;;12.11;58.27;95398.03;4987556;28;20030;-78
2023/10/17 14:36:36;;;;;;;7.38;3.45;;;;;;;12.26;58.33;95411.22;4987017;28;20042;-78
2023/10/17 14:39:02;;;;;;;4.82;3.00;;;;;;;12.34;57.61;95426.56;4970298;28;20117;-76
2023/10/17 14:41:28;;;;;;;6.07;3.28;;;;;;;12.04;57.29;95370.97;4977262;28;20129;-78
2023/10/17 14:43:55;;;;;;;4.70;2.92;;;;;;;12.12;57.42;95383.69;4983937;28;20535;-77
2023/10/17 14:46:20;;;;;;;5.95;2.72;;;;;;;11.81;58.30;95363.69;4946074;28;20324;-78